McBride, Missouri
Current Conditions -  °F | °C
As of 1:15 PM on Thursday 23 Oct 2014 (Local Time) from KSAR Reporting Station
Clear Clear  
Wind Chill: 15°   Ceiling: Unl
Heat Index: 15°   Visibility: 10mi
Dew Point:   Wind: 7mph
Humidity: 59%   Direction: 190°S
Pressure: 30.19"   Gusts: NA
Location:  37.83°N, 89.84°W
Report Text: KSAR 231815Z AUTO 19006KT 10SM CLR 15/07 A3019 RMK AO2 T01480068
Loading
Personal Weather Stations






























Interactive Weather Map
Tropical Storm Tracking
New forecast layout! Learn more

10-Day Weather Forecast

Advertisements
Track Severe Weather on mobile